Terminal Aerodrome Forecast
Issued by NWS

Home | Current Version | Previous Version | Graphics & Text | Print | Product List | Glossary On
Versions: 1 2 3 4 5 6 7 8 9 10 11 12 13 14 15 16 17 18 19 20 21 22 23
000
FTUS43 KGRB 311100
TAFATW
TAF
KATW 311120Z 3112/0112 26007KT P6SM SCT015 SCT100
     FM311600 28009KT P6SM SCT045 SCT080
     FM010200 26004KT P6SM SCT080=

USA.gov is the U.S. government's official web portal to all federal, state and local government web resources and services.